Latest Weather Observations for Casey*

IDT60801

Issued at 6:41 pm EST Saturday 13 April 2024 (issued every 10 minutes, with the page automatically refreshed every 10 minutes)

About weather observations | Map of weather stations | Latest weather observations for ANT | Other Formats
Station Details ID: 300017 Name: CASEY Lat: -66.28 Lon: 110.52 Height: 40.0 m
Data from the previous 72 hours. | See also: Recent months at Casey*
Date/Time
EST
Temp
°C
App
Temp
°C
Dew
Point
°C
Rel
Hum
%
Delta-T
°C
Wind Press
QNH
hPa
Press
MSL
hPa
Rain since
9am
mm
Dir  Spd
km/h
Gust
km/h
Spd
kts
Gust
kts
13/06:30pm -21.5 -28.5 -26.8 62 - SSE 17 19 9 10 973.6 974.0 -
13/06:00pm -20.0 -26.6 -28.1 48 - SE 15 17 8 9 973.6 974.0 -
13/05:30pm -20.6 -28.0 -27.4 54 - SE 19 20 10 11 973.6 974.0 -
13/05:00pm -20.7 -28.1 -26.4 60 - SSE 19 22 10 12 973.5 973.9 -
13/04:30pm -19.1 -24.0 -26.7 51 - ESE 6 11 3 6 973.4 973.8 -
13/04:00pm -19.1 -25.0 -27.1 49 - ESE 11 13 6 7 973.6 974.0 -
13/03:30pm -18.8 -25.8 -26.4 51 - ESE 17 28 9 15 973.8 974.2 -
13/03:00pm -20.3 -28.6 -26.4 58 - SSW 24 28 13 15 973.2 973.6 -
13/02:30pm -20.4 -27.8 -27.1 55 - SSW 19 22 10 12 973.3 973.7 -
13/02:00pm -21.1 -29.1 -27.1 58 - SSE 22 28 12 15 973.5 973.9 -
13/01:30pm -19.3 -24.8 -28.7 43 - SE 9 13 5 7 973.7 974.1 -
13/01:00pm -21.3 -28.3 -28.7 51 - SSE 17 20 9 11 973.8 974.2 -
13/12:30pm -19.2 -24.7 -29.3 40 - SE 9 17 5 9 973.5 973.9 -
13/12:00pm -19.5 -25.8 -29.6 40 - ESE 13 15 7 8 973.5 973.9 -
13/11:30am -21.0 -27.7 -30.5 42 - SE 15 17 8 9 973.5 973.9 -
13/11:00am -21.8 -28.5 -31.0 43 - SE 15 17 8 9 973.6 974.0 -
13/10:30am -21.9 -28.6 -31.1 43 - ESE 15 19 8 10 973.6 974.0 -
13/10:00am -20.8 -26.3 -29.3 46 - ENE 9 15 5 8 973.5 973.9 -
13/09:30am -20.2 -27.6 -28.3 48 - NE 19 22 10 12 973.4 973.8 -
13/09:00am -20.6 -27.7 -29.9 43 - NE 17 20 9 11 973.5 973.9 -
13/08:30am -21.2 -28.3 -29.5 47 - NE 17 20 9 11 973.5 973.9 -
13/08:00am -21.5 -27.4 -29.8 47 - NE 11 13 6 7 973.4 973.8 -
13/07:30am -21.7 -27.6 -28.9 52 - ESE 11 15 6 8 973.3 973.7 -
13/07:00am -23.1 -28.3 -30.6 50 - S 7 9 4 5 973.4 973.8 -
13/06:30am -24.3 -30.6 -29.8 60 - S 13 15 7 8 973.6 974.0 -
13/06:00am -24.2 -30.1 -30.6 55 - SSE 11 13 6 7 973.7 974.1 -
13/05:30am -23.0 -29.7 -31.6 45 - SE 15 17 8 9 973.8 974.2 -
13/05:00am -23.0 -29.3 -30.7 49 - SSE 13 15 7 8 974.0 974.5 -
13/04:30am -23.3 -29.6 -30.8 50 - SSE 13 17 7 9 974.3 974.8 -
13/04:00am -22.7 -29.4 -31.8 43 - SE 15 19 8 10 974.4 974.9 -
13/03:30am -21.4 -27.3 -30.8 42 - ESE 11 11 6 6 974.6 975.1 -
13/03:00am -23.3 -28.9 -32.3 43 - E 9 13 5 7 974.8 975.3 -
13/02:30am -21.7 -26.9 -30.9 43 - E 7 11 4 6 975.0 975.5 -
13/02:00am -22.7 -27.9 -30.9 47 - SSE 7 9 4 5 975.1 975.6 -
13/01:30am -23.0 -28.5 -30.3 51 - SSE 9 13 5 7 975.3 975.8 -
13/01:00am -22.7 -28.2 -30.4 49 - ESE 9 11 5 6 975.5 976.0 -
13/12:30am -21.3 -26.8 -29.1 49 - E 9 13 5 7 975.5 976.0 -
13/12:00am -22.4 -28.3 -30.1 49 - ESE 11 13 6 7 975.8 976.3 -
 
Date/Time
EST
Temp
°C
App
Temp
°C
Dew
Point
°C
Rel
Hum
%
Delta-T
°C
Wind Press
QNH
hPa
Press
MSL
hPa
Rain since
9am
mm
Dir  Spd
km/h
Gust
km/h
Spd
kts
Gust
kts
12/11:30pm -23.3 -28.8 -30.0 54 - SE 9 13 5 7 975.9 976.4 -
12/11:00pm -22.5 -28.4 -30.7 47 - SE 11 15 6 8 976.1 976.6 -
12/10:30pm -21.6 -27.5 -30.3 45 - SE 11 15 6 8 976.2 976.7 -
12/10:00pm -21.6 -28.3 -31.0 42 - ESE 15 17 8 9 976.3 976.8 -
12/09:30pm -23.9 -30.2 -32.6 45 - ESE 13 15 7 8 976.4 976.9 -
12/09:00pm -21.1 -27.0 -31.1 40 - ESE 11 13 6 7 976.5 977.0 -
12/08:30pm -23.4 -29.0 -31.5 47 - E 9 13 5 7 976.6 977.1 -
12/08:00pm -21.8 -27.3 -29.4 50 - E 9 11 5 6 976.6 977.1 -
12/07:30pm -23.3 -29.2 -30.8 50 - E 11 13 6 7 976.5 977.0 -
12/07:00pm -20.6 -26.1 -29.4 45 - ENE 9 11 5 6 976.3 976.8 -
12/06:30pm -20.5 -25.7 -29.5 44 - ENE 7 11 4 6 976.1 976.6 -
12/06:00pm -21.1 -27.0 -29.6 46 - ENE 11 13 6 7 975.9 976.4 -
12/05:30pm -21.1 -26.6 -28.9 49 - E 9 11 5 6 975.7 976.2 -
12/05:00pm -19.5 -25.8 -29.6 40 - ENE 13 15 7 8 975.5 976.0 -
12/04:30pm -19.4 -26.4 -29.0 42 - ENE 17 24 9 13 975.3 975.8 -
12/04:00pm -19.7 -26.3 -28.1 47 - E 15 17 8 9 975.2 975.7 -
12/03:30pm -20.1 -25.6 -29.4 43 - ENE 9 15 5 8 974.9 975.4 -
12/03:00pm -18.5 -25.1 -27.7 44 - NE 15 19 8 10 974.8 975.3 -
12/02:30pm -18.9 -25.5 -27.8 45 - ENE 15 19 8 10 974.7 975.2 -
12/02:00pm -18.8 -25.0 -26.6 50 - NE 13 17 7 9 974.6 975.1 -
12/01:30pm -19.6 -25.1 -26.7 53 - ESE 9 13 5 7 974.6 975.1 -
12/01:00pm -19.8 -25.7 -27.1 52 - ESE 11 15 6 8 974.5 975.0 -
12/12:30pm -19.6 -24.1 -27.1 51 - ESE 4 6 2 3 974.6 975.1 -
12/12:00pm -21.7 -27.6 -29.1 51 - SE 11 15 6 8 974.5 975.0 -
12/11:30am -21.9 -27.4 -26.3 67 - S 9 9 5 5 974.3 974.8 -
12/11:00am -21.7 -28.7 -28.7 53 - SE 17 26 9 14 974.1 974.6 -
12/10:30am -21.6 -28.6 -28.8 52 - ESE 17 20 9 11 973.8 974.2 -
12/10:00am -22.3 -31.4 -28.6 56 - E 28 33 15 18 973.6 974.0 -
12/09:30am -22.3 -32.2 -27.4 63 - E 32 39 17 21 973.3 973.7 -
12/09:00am -21.5 -31.5 -26.5 64 - E 33 37 18 20 972.9 973.3 -
12/08:30am -21.7 -32.1 -26.6 64 - E 35 39 19 21 972.5 972.9 -
12/08:00am -21.5 -31.3 -26.6 63 - ENE 32 35 17 19 972.4 972.8 -
12/07:30am -19.7 -29.1 -24.6 65 - NE 30 33 16 18 971.9 972.3 -
12/07:00am -19.4 -27.7 -24.1 66 - NE 24 39 13 21 971.5 971.9 -
12/06:57am -19.5 -26.8 -24.0 67 - NNE 19 37 10 20 971.5 971.9 -
12/06:30am -20.8 -25.8 -24.2 74 - ENE 7 9 4 5 971.5 971.9 -
12/06:00am -20.5 -27.1 -24.2 72 - SE 15 20 8 11 971.1 971.5 -
12/05:30am -20.6 -26.4 -23.6 77 - SSE 11 15 6 8 970.8 971.2 -
12/05:00am -21.3 -28.6 -24.0 79 - SSE 19 24 10 13 970.6 971.0 -
12/04:30am -23.3 -30.3 -27.4 69 - SSE 17 20 9 11 970.5 970.9 -
12/04:00am -24.5 -30.8 -29.0 66 - S 13 15 7 8 970.4 970.8 -
12/03:30am -25.4 -31.7 -30.0 65 - S 13 17 7 9 970.3 970.7 -
12/03:00am -25.4 -32.8 -29.7 67 - S 19 26 10 14 970.6 971.0 -
12/02:30am -25.6 -35.7 -29.4 70 - SSE 33 43 18 23 971.2 971.6 -
12/02:18am -25.4 -38.7 -28.9 72 - SSE 50 61 27 33 970.7 971.1 -
12/02:00am -25.5 -41.7 -29.5 69 - SSE 65 76 35 41 970.3 970.7 -
12/01:30am -25.1 -42.0 -28.5 73 - S 69 82 37 44 970.6 971.0 -
12/01:00am -24.8 -39.4 -27.9 75 - S 57 70 31 38 971.6 972.0 -
12/12:30am -24.9 -41.4 -28.2 74 - S 67 80 36 43 971.9 972.3 -
12/12:00am -24.9 -41.8 -28.6 71 - S 69 80 37 43 972.3 972.7 -
 
Date/Time
EST
Temp
°C
App
Temp
°C
Dew
Point
°C
Rel
Hum
%
Delta-T
°C
Wind Press
QNH
hPa
Press
MSL
hPa
Rain since
9am
mm
Dir  Spd
km/h
Gust
km/h
Spd
kts
Gust
kts
11/11:30pm -25.0 -40.8 -29.3 67 - S 63 76 34 41 973.0 973.4 -
11/11:00pm -24.8 -41.9 -28.7 70 - S 70 83 38 45 972.9 973.3 -
11/10:31pm -24.5 -40.7 -28.4 70 - SSE 65 83 35 45 973.2 973.6 -
11/10:30pm -24.5 -41.0 -28.4 70 - SSE 67 83 36 45 973.3 973.7 -
11/10:00pm -24.6 -41.7 -28.6 69 - S 70 83 38 45 972.8 973.2 -
11/09:42pm -24.5 -42.0 -28.2 71 - S 72 85 39 46 972.7 973.1 -
11/09:30pm -24.2 -40.7 -27.5 74 - S 67 78 36 42 973.1 973.5 -
11/09:00pm -24.0 -38.4 -27.1 75 - S 56 67 30 36 974.5 975.0 -
11/08:30pm -23.9 -37.6 -27.1 75 - S 52 65 28 35 974.5 975.0 -
11/08:00pm -23.4 -37.4 -26.4 76 - S 54 70 29 38 974.0 974.5 -
11/07:30pm -23.0 -35.5 -26.0 76 - S 46 56 25 30 974.4 974.9 -
11/07:00pm -22.3 -35.5 -25.1 78 - S 50 63 27 34 974.3 974.8 -
11/06:30pm -22.1 -36.5 -25.8 72 - S 56 69 30 37 974.2 974.7 -
11/06:00pm -21.2 -34.0 -24.7 73 - S 48 57 26 31 974.4 974.9 -
11/05:30pm -20.6 -34.2 -23.8 75 - S 52 59 28 32 973.9 974.3 -
11/05:20pm -21.3 -35.3 -25.0 72 - S 54 67 29 36 973.5 973.9 -
11/05:19pm -21.1 -34.7 -24.8 72 - S 52 67 28 36 973.6 974.0 -
11/05:00pm -22.1 -37.1 -25.9 71 - SSE 59 69 32 37 973.8 974.2 -
11/04:30pm -21.7 -37.0 -24.8 76 - S 61 72 33 39 973.7 974.1 -
11/04:00pm -21.2 -34.0 -24.3 76 - S 48 59 26 32 974.5 975.0 -
11/03:56pm -21.2 -33.3 -24.3 76 - S 44 56 24 30 974.5 975.0 -
11/03:30pm -22.1 -32.5 -26.2 69 - SSE 35 44 19 24 975.3 975.8 -
11/03:00pm -21.9 -33.1 -26.5 66 - SSE 39 46 21 25 975.4 975.9 -
11/02:30pm -22.1 -33.3 -27.2 63 - SSE 39 44 21 24 975.3 975.8 -
11/02:00pm -22.3 -33.1 -27.6 62 - SSE 37 44 20 24 975.4 975.9 -
11/01:30pm -22.3 -32.7 -26.9 66 - SSE 35 46 19 25 975.6 976.1 -
11/01:00pm -22.4 -32.4 -27.0 66 - SSE 33 43 18 23 975.2 975.7 -
11/12:40pm -22.3 -32.1 -25.6 74 - SSE 32 39 17 21 975.1 975.6 -
11/12:30pm -22.7 -33.9 -25.9 75 - SSE 39 44 21 24 975.1 975.6 -
11/12:23pm -22.7 -33.9 -26.0 74 - SSE 39 46 21 25 975.0 975.5 -
11/12:00pm -23.2 -32.7 -27.6 67 - SSE 30 35 16 19 974.8 975.3 -
11/11:30am -22.4 -32.3 -27.1 65 - SSE 32 37 17 20 974.4 974.9 -
11/11:00am -22.7 -32.7 -26.5 71 - SSE 33 39 18 21 974.0 974.5 -
11/10:30am -23.4 -33.3 -26.7 74 - SSE 32 37 17 20 974.0 974.5 -
11/10:00am -25.1 -35.6 -28.8 71 - SSE 35 43 19 23 973.7 974.1 -
11/09:30am -25.1 -37.1 -28.9 71 - SSE 43 48 23 26 973.9 974.3 -
11/09:29am -25.1 -37.1 -28.9 71 - SSE 43 48 23 26 973.9 974.3 -
11/09:18am -25.2 -37.2 -29.0 70 - SSE 43 50 23 27 974.1 974.6 -
11/09:11am -25.0 -37.0 -28.9 70 - SSE 43 50 23 27 974.0 974.5 -
11/09:00am -25.1 -37.1 -28.8 71 - SSE 43 54 23 29 974.3 974.8 -
11/08:30am -24.4 -36.9 -28.3 70 - SSE 46 54 25 29 974.1 974.6 -
11/08:00am -24.2 -36.2 -27.6 73 - SSE 43 52 23 28 974.2 974.7 -
11/07:58am -24.0 -36.0 -27.4 73 - SSE 43 50 23 27 974.3 974.8 -
11/07:54am -23.9 -35.5 -27.3 73 - SSE 41 50 22 27 974.4 974.9 -
11/07:30am -24.2 -37.1 -27.9 71 - SSE 48 56 26 30 974.4 974.9 -
11/07:21am -23.3 -35.4 -27.2 70 - SSE 44 54 24 29 974.4 974.9 -
11/07:04am -22.1 -32.9 -25.6 73 - SSE 37 43 20 23 974.6 975.1 -
11/07:00am -22.3 -33.1 -25.6 74 - SSE 37 41 20 22 974.6 975.1 -
11/06:34am -21.6 -31.6 -24.4 78 - SSE 33 43 18 23 974.7 975.2 -
11/06:30am -21.8 -31.6 -24.9 76 - SSE 32 39 17 21 974.8 975.3 -
11/06:00am -23.3 -34.9 -26.5 75 - SSE 41 46 22 25 975.1 975.6 -
11/05:59am -23.3 -34.9 -26.5 75 - SSE 41 46 22 25 975.1 975.6 -
11/05:49am -23.5 -35.6 -27.0 73 - SSE 44 52 24 28 975.2 975.7 -
11/05:37am -23.3 -35.3 -27.2 70 - SSE 43 50 23 27 975.2 975.7 -
11/05:30am -22.8 -34.7 -26.4 72 - SSE 43 50 23 27 975.3 975.8 -
11/05:00am -21.8 -33.3 -24.7 77 - SSE 41 48 22 26 975.5 976.0 -
11/04:30am -22.5 -34.4 -25.4 77 - SSE 43 52 23 28 975.9 976.4 -
11/04:24am -22.3 -33.5 -25.5 75 - SSE 39 50 21 27 975.9 976.4 -
11/04:23am -22.1 -33.2 -25.2 76 - SSE 39 50 21 27 976.0 976.5 -
11/04:07am -22.3 -33.1 -25.4 76 - SSE 37 44 20 24 976.3 976.8 -
11/04:00am -21.2 -31.2 -24.4 75 - SSE 33 41 18 22 976.4 976.9 -
11/03:30am -21.0 -31.7 -24.2 75 - SSE 37 44 20 24 976.6 977.1 -
11/03:00am -19.1 -28.5 -22.1 77 - SSE 30 35 16 19 976.8 977.3 -
11/02:30am -19.2 -28.6 -22.0 78 - SSE 30 39 16 21 977.0 977.5 -
11/02:00am -19.8 -28.4 -22.8 77 - SSE 26 32 14 17 977.5 978.0 -
11/01:30am -19.9 -28.5 -22.9 77 - SSE 26 32 14 17 978.0 978.5 -
11/01:00am -20.1 -27.6 -23.4 75 - SSE 20 24 11 13 978.7 979.2 -
11/12:30am -20.7 -29.0 -23.8 76 - SSE 24 28 13 15 978.9 979.4 -
11/12:00am -21.2 -29.5 -24.3 76 - SSE 24 30 13 16 979.0 979.5 -
 
Date/Time
EST
Temp
°C
App
Temp
°C
Dew
Point
°C
Rel
Hum
%
Delta-T
°C
Wind Press
QNH
hPa
Press
MSL
hPa
Rain since
9am
mm
Dir  Spd
km/h
Gust
km/h
Spd
kts
Gust
kts
10/11:30pm -21.5 -29.8 -24.9 74 - SSE 24 30 13 16 979.5 980.0 -
10/11:00pm -21.9 -30.6 -25.0 76 - SSE 26 28 14 15 980.0 980.5 -
10/10:30pm -22.4 -31.5 -25.7 74 - SSE 28 33 15 18 980.5 981.0 -
10/10:00pm -22.4 -31.1 -25.6 75 - SSE 26 30 14 16 981.0 981.5 -
10/09:30pm -22.2 -31.7 -25.8 72 - SSE 30 33 16 18 981.5 982.0 -
10/09:00pm -21.4 -30.1 -24.9 73 - SSE 26 32 14 17 981.3 981.8 -

Other formats

Comma delimited format used in spreadsheet applications
http://www.bom.gov.au/fwo/IDT60803/IDT60803.89611.axf

JavaScript Object Notation format (JSON) in row-major order
http://www.bom.gov.au/fwo/IDT60803/IDT60803.89611.json

Data quality

Most of these data are generated automatically and are frequently updated. Quality checks on data are not normally performed. It is possible for incorrect values to appear. Refer to information at About Latest Weather Observations and please check the disclaimer before using these data.